Time;durP1;ratioP1;P1;durP2;ratioP2;P2;SDS_P1;SDS_P2;PMS_P1;PMS_P2;Temp;Humidity;BMP_temperature;BMP_pressure;BME280_temperature;BME280_humidity;BME280_pressure;Samples;Min_cycle;Max_cycle;Signal;HPM_P1;HPM_P2
2021/12/23 00:04:07;;;;;;;49.67;22.48;;;;;;;-2.53;100.00;101879.22;10155605;28;20050;-69
2021/12/23 00:09:04;;;;;;;52.92;22.40;;;;;;;-2.56;100.00;101879.63;10187843;28;20145;-68
2021/12/23 00:14:05;;;;;;;56.00;22.20;;;;;;;-2.60;100.00;101862.31;10175949;28;20050;-69
2021/12/23 00:19:14;;;;;;;50.75;21.63;;;;;;;-2.57;100.00;101851.22;10168836;28;20080;-68
2021/12/23 00:24:11;;;;;;;55.20;22.23;;;;;;;-2.53;100.00;101831.00;10169692;28;20054;-69
2021/12/23 00:29:07;;;;;;;54.58;22.33;;;;;;;-2.54;100.00;101834.72;10183006;28;20545;-70
2021/12/23 00:34:05;;;;;;;55.50;22.25;;;;;;;-2.56;100.00;101816.19;10174277;28;20042;-69
2021/12/23 00:39:02;;;;;;;47.90;21.48;;;;;;;-2.51;100.00;101802.19;10183830;28;20042;-68
2021/12/23 00:43:59;;;;;;;47.15;19.77;;;;;;;-2.51;100.00;101794.16;10179839;28;20068;-69
2021/12/23 00:48:56;;;;;;;47.42;20.42;;;;;;;-2.50;100.00;101787.78;10186203;28;20038;-68
2021/12/23 00:54:02;;;;;;;48.63;21.90;;;;;;;-2.53;100.00;101788.16;10179343;28;20153;-68
2021/12/23 00:58:59;;;;;;;45.05;19.33;;;;;;;-2.63;100.00;101771.69;10190397;28;20085;-69
2021/12/23 01:03:56;;;;;;;43.45;20.63;;;;;;;-2.61;100.00;101775.81;10183539;28;20408;-71
2021/12/23 01:08:53;;;;;;;50.47;21.90;;;;;;;-2.68;100.00;101758.09;10064331;28;20045;-71
2021/12/23 01:14:01;;;;;;;43.45;19.30;;;;;;;-2.57;100.00;101738.75;10129383;28;20604;-70
2021/12/23 01:18:59;;;;;;;41.65;18.80;;;;;;;-2.53;100.00;101723.88;10189383;28;20096;-70
2021/12/23 01:23:58;;;;;;;43.55;18.70;;;;;;;-2.49;100.00;101729.69;10183580;28;20133;-71
2021/12/23 01:28:58;;;;;;;37.20;16.73;;;;;;;-2.43;100.00;101740.41;10194442;28;20066;-68
2021/12/23 01:33:54;;;;;;;42.85;19.13;;;;;;;-2.36;100.00;101751.09;10014258;28;20044;-67
2021/12/23 01:38:51;;;;;;;41.42;19.73;;;;;;;-2.55;100.00;101755.44;10129371;28;20073;-68
2021/12/23 01:43:48;;;;;;;40.35;18.75;;;;;;;-2.49;100.00;101741.19;10178403;28;20078;-69
2021/12/23 01:48:45;;;;;;;40.63;16.67;;;;;;;-2.30;100.00;101736.06;10184948;28;20560;-69
2021/12/23 01:53:41;;;;;;;38.00;18.23;;;;;;;-2.37;100.00;101738.72;10181977;28;20046;-68
2021/12/23 01:58:39;;;;;;;38.70;17.50;;;;;;;-2.39;100.00;101730.91;10169259;28;20563;-69
2021/12/23 02:03:37;;;;;;;42.17;19.02;;;;;;;-2.31;100.00;101707.63;10168578;28;20125;-69
2021/12/23 02:08:35;;;;;;;37.88;17.50;;;;;;;-2.37;100.00;101696.72;10177672;28;20034;-69
2021/12/23 02:13:32;;;;;;;34.58;17.00;;;;;;;-2.34;100.00;101688.25;10179586;28;20455;-68
2021/12/23 02:18:29;;;;;;;37.72;17.80;;;;;;;-2.32;100.00;101682.69;10184733;28;20489;-69
2021/12/23 02:23:26;;;;;;;37.60;17.25;;;;;;;-2.28;100.00;101678.56;10181836;28;20100;-68
2021/12/23 02:28:26;;;;;;;40.88;18.20;;;;;;;-2.24;100.00;101677.09;10171780;28;20164;-69
2021/12/23 02:33:25;;;;;;;40.55;19.00;;;;;;;-2.18;100.00;101670.06;10169025;28;20053;-69
2021/12/23 02:38:22;;;;;;;39.20;18.38;;;;;;;-2.12;100.00;101655.84;10175387;28;20046;-67
2021/12/23 02:43:26;;;;;;;40.47;18.65;;;;;;;-2.10;100.00;101639.56;10178596;28;20042;-67
2021/12/23 02:48:34;;;;;;;42.85;17.55;;;;;;;-2.12;100.00;101629.06;10176352;28;20077;-67
2021/12/23 02:53:30;;;;;;;37.97;18.00;;;;;;;-2.12;100.00;101631.72;10166024;28;20065;-68
2021/12/23 02:58:27;;;;;;;36.40;16.58;;;;;;;-2.16;100.00;101626.00;10183430;28;20458;-69
2021/12/23 03:03:24;;;;;;;40.58;19.48;;;;;;;-2.09;100.00;101628.63;10178960;28;20077;-68
2021/12/23 03:08:42;;;;;;;38.00;18.02;;;;;;;-2.30;100.00;101620.88;10179434;28;20084;-69
2021/12/23 03:13:39;;;;;;;36.03;17.65;;;;;;;-2.07;100.00;101604.31;10179859;28;20080;-69
2021/12/23 03:18:36;;;;;;;32.72;15.30;;;;;;;-2.03;100.00;101587.59;10177995;28;20072;-69
2021/12/23 03:23:33;;;;;;;33.67;16.90;;;;;;;-1.99;100.00;101579.97;10184004;28;20516;-68
2021/12/23 03:28:30;;;;;;;35.88;17.05;;;;;;;-2.00;100.00;101568.41;10167466;28;20054;-68
2021/12/23 03:33:27;;;;;;;38.40;17.77;;;;;;;-2.03;100.00;101541.22;10173891;28;20045;-70
2021/12/23 03:38:24;;;;;;;41.97;18.13;;;;;;;-2.04;100.00;101545.75;10171313;28;20493;-69
2021/12/23 03:43:22;;;;;;;36.08;16.75;;;;;;;-2.04;100.00;101540.41;10164889;28;20542;-69
2021/12/23 03:48:19;;;;;;;32.90;16.80;;;;;;;-2.07;100.00;101519.38;10174313;28;20050;-68
2021/12/23 03:53:16;;;;;;;33.90;17.67;;;;;;;-2.08;100.00;101527.63;10008239;28;20048;-68
2021/12/23 03:58:13;;;;;;;32.30;15.70;;;;;;;-2.05;100.00;101516.47;10082676;28;20499;-68
2021/12/23 04:03:10;;;;;;;37.85;17.33;;;;;;;-2.03;100.00;101509.88;10172795;28;20053;-68
2021/12/23 04:08:07;;;;;;;34.38;17.25;;;;;;;-2.07;100.00;101503.28;10175638;28;20096;-69
2021/12/23 04:13:04;;;;;;;38.63;17.30;;;;;;;-2.09;100.00;101483.91;10172257;28;20077;-69
2021/12/23 04:18:00;;;;;;;36.40;17.98;;;;;;;-2.08;100.00;101472.19;10189585;28;20535;-69
2021/12/23 04:22:57;;;;;;;35.15;16.60;;;;;;;-2.01;100.00;101464.91;10167742;28;20133;-68
2021/12/23 04:27:57;;;;;;;38.25;19.63;;;;;;;-2.02;100.00;101468.66;10177770;28;20564;-68
2021/12/23 04:32:54;;;;;;;34.17;16.88;;;;;;;-2.02;100.00;101463.28;10164595;28;20077;-69
2021/12/23 04:37:51;;;;;;;37.95;17.15;;;;;;;-2.05;100.00;101474.41;10166687;28;20128;-69
2021/12/23 04:42:47;;;;;;;37.85;18.13;;;;;;;-2.06;100.00;101459.41;10176089;28;20149;-68
2021/12/23 04:47:44;;;;;;;37.83;17.65;;;;;;;-2.06;100.00;101440.63;10184621;28;20108;-67
2021/12/23 04:52:42;;;;;;;35.33;17.02;;;;;;;-2.05;100.00;101436.09;10173453;28;20583;-69
2021/12/23 04:57:39;;;;;;;37.53;17.95;;;;;;;-2.01;100.00;101424.72;10178806;28;20518;-68
2021/12/23 05:02:35;;;;;;;36.35;17.02;;;;;;;-1.98;100.00;101418.91;10167871;28;20133;-68
2021/12/23 05:07:32;;;;;;;38.55;17.30;;;;;;;-1.94;100.00;101412.09;10176837;28;20045;-69
2021/12/23 05:12:29;;;;;;;34.70;16.27;;;;;;;-1.92;100.00;101393.94;10175584;28;20066;-69
2021/12/23 05:17:25;;;;;;;37.35;17.30;;;;;;;-1.93;100.00;101386.09;10189674;28;20045;-69
2021/12/23 05:22:22;;;;;;;31.90;16.40;;;;;;;-1.79;100.00;101368.06;10184905;28;20045;-69
2021/12/23 05:27:18;;;;;;;36.45;17.52;;;;;;;-1.99;100.00;101354.84;10178974;28;20130;-68
2021/12/23 05:32:14;;;;;;;34.10;17.95;;;;;;;-1.92;100.00;101340.34;10169391;28;20164;-68
2021/12/23 05:37:11;;;;;;;35.72;17.33;;;;;;;-1.83;100.00;101327.47;10183181;28;20389;-68
2021/12/23 05:42:08;;;;;;;33.28;15.55;;;;;;;-1.76;100.00;101303.28;10174336;28;20046;-69
2021/12/23 05:47:04;;;;;;;36.08;17.98;;;;;;;-1.81;100.00;101316.50;10184448;28;20073;-69
2021/12/23 05:52:01;;;;;;;36.92;17.52;;;;;;;-1.77;100.00;101296.28;10178674;28;21302;-69
2021/12/23 05:57:01;;;;;;;36.85;18.02;;;;;;;-1.85;100.00;101277.81;10191068;28;20074;-69
2021/12/23 06:02:05;;;;;;;38.28;18.38;;;;;;;-1.83;100.00;101289.09;10176618;28;20436;-68
2021/12/23 06:07:02;;;;;;;33.65;15.88;;;;;;;-1.77;100.00;101269.47;10174078;28;20053;-69
2021/12/23 06:11:59;;;;;;;39.97;18.20;;;;;;;-1.99;100.00;101275.25;10188084;28;20508;-69
2021/12/23 06:16:55;;;;;;;34.00;16.27;;;;;;;-1.82;100.00;101253.22;10176381;28;20129;-69
2021/12/23 06:21:52;;;;;;;36.88;17.10;;;;;;;-1.85;100.00;101210.78;10173703;28;20551;-70
2021/12/23 06:26:48;;;;;;;34.10;16.75;;;;;;;-1.93;100.00;101199.34;10188762;28;20138;-70
2021/12/23 06:31:45;;;;;;;35.35;17.92;;;;;;;-1.92;100.00;101189.41;10181452;28;20104;-70
2021/12/23 06:36:43;;;;;;;32.42;17.02;;;;;;;-1.79;100.00;101185.75;10174683;28;20076;-70
2021/12/23 06:41:40;;;;;;;33.28;16.20;;;;;;;-1.74;100.00;101186.75;10184052;28;20100;-69
2021/12/23 06:46:36;;;;;;;35.00;16.88;;;;;;;-1.66;100.00;101198.19;10184941;28;20100;-70
2021/12/23 06:51:33;;;;;;;32.47;16.98;;;;;;;-1.64;100.00;101180.84;10185490;28;20045;-70
2021/12/23 06:56:30;;;;;;;32.72;16.73;;;;;;;-1.61;100.00;101169.66;10138294;28;20133;-70
2021/12/23 07:01:26;;;;;;;34.65;17.35;;;;;;;-1.66;100.00;101155.31;10079372;28;20066;-72
2021/12/23 07:06:24;;;;;;;35.72;19.13;;;;;;;-1.71;100.00;101137.22;10171753;28;20144;-71
2021/12/23 07:11:20;;;;;;;31.08;16.60;;;;;;;-1.67;100.00;101130.34;10182503;28;20094;-71
2021/12/23 07:16:17;;;;;;;34.50;17.98;;;;;;;-1.72;100.00;101132.88;10173673;28;20098;-72
2021/12/23 07:21:14;;;;;;;33.38;17.13;;;;;;;-1.71;100.00;101124.63;10185410;28;20049;-72
2021/12/23 07:26:10;;;;;;;38.30;17.25;;;;;;;-1.71;100.00;101135.34;10179586;28;20054;-72
2021/12/23 07:31:07;;;;;;;36.58;17.20;;;;;;;-1.63;100.00;101142.25;10164356;28;20085;-73
2021/12/23 07:36:05;;;;;;;29.10;15.50;;;;;;;-1.69;100.00;101156.56;10180072;28;20054;-72
2021/12/23 07:41:02;;;;;;;35.65;17.38;;;;;;;-1.67;100.00;101170.56;10163934;28;20088;-72
2021/12/23 07:45:59;;;;;;;36.30;17.75;;;;;;;-1.64;100.00;101156.72;10162058;28;20145;-72
2021/12/23 07:50:58;;;;;;;37.85;17.58;;;;;;;-1.75;100.00;101174.34;10169995;28;20042;-72
2021/12/23 07:55:54;;;;;;;33.83;16.73;;;;;;;-1.81;100.00;101190.53;10168880;28;20066;-71
2021/12/23 08:00:51;;;;;;;33.45;16.38;;;;;;;-1.62;100.00;101176.06;10167555;28;20127;-71
2021/12/23 08:05:48;;;;;;;37.00;18.52;;;;;;;-1.58;100.00;101196.03;10170398;28;20069;-71
2021/12/23 08:10:45;;;;;;;34.63;18.45;;;;;;;-1.45;100.00;101178.13;10157100;28;20043;-70
2021/12/23 08:15:43;;;;;;;31.65;16.77;;;;;;;-1.33;100.00;101171.75;10134141;28;20052;-71
2021/12/23 08:20:40;;;;;;;33.17;16.50;;;;;;;-1.30;100.00;101154.38;10001708;28;20084;-68
2021/12/23 08:25:36;;;;;;;35.10;18.10;;;;;;;-1.25;100.00;101167.97;10170301;28;20073;-69
2021/12/23 08:30:34;;;;;;;36.83;18.50;;;;;;;-1.20;100.00;101148.50;10165007;28;20511;-68
2021/12/23 08:35:31;;;;;;;29.92;17.50;;;;;;;-1.14;100.00;101126.94;10168199;28;20047;-68
2021/12/23 08:40:28;;;;;;;33.30;17.67;;;;;;;-1.12;100.00;101114.06;10170595;28;20070;-69
2021/12/23 08:45:26;;;;;;;34.85;18.80;;;;;;;-1.07;100.00;101105.31;10164998;28;25625;-69
2021/12/23 08:50:25;;;;;;;31.10;15.52;;;;;;;-0.96;100.00;101107.22;10177379;28;20104;-67
2021/12/23 08:55:25;;;;;;;34.05;17.63;;;;;;;-0.95;100.00;101099.97;10183560;28;20451;-66
2021/12/23 09:00:22;;;;;;;33.03;17.17;;;;;;;-0.95;100.00;101092.75;10173991;28;20479;-67
2021/12/23 09:05:19;;;;;;;34.60;18.13;;;;;;;-0.84;100.00;101077.69;10182663;28;20496;-66
2021/12/23 09:10:17;;;;;;;37.20;17.73;;;;;;;-0.81;100.00;101082.63;10173987;28;20630;-69
2021/12/23 09:15:14;;;;;;;34.22;18.00;;;;;;;-0.90;100.00;101057.16;10162496;28;20120;-69
2021/12/23 09:20:13;;;;;;;33.58;16.30;;;;;;;-0.80;100.00;101057.41;9959716;28;20049;-69
2021/12/23 09:25:19;;;;;;;29.05;15.73;;;;;;;-0.79;100.00;101064.41;9968957;28;20106;-69
2021/12/23 09:35:49;;;;;;;33.35;16.90;;;;;;;-0.62;100.00;101047.59;10178182;28;20092;-70
2021/12/23 09:40:46;;;;;;;28.48;15.15;;;;;;;-0.71;100.00;101039.88;10165812;28;20117;-70
2021/12/23 09:45:46;;;;;;;27.27;15.90;;;;;;;-0.53;100.00;101027.38;10178246;28;20074;-70
2021/12/23 09:50:43;;;;;;;32.97;16.38;;;;;;;-0.50;100.00;101016.16;10164398;28;20073;-69
2021/12/23 09:55:40;;;;;;;30.50;15.40;;;;;;;-0.46;100.00;100998.50;10165532;28;20146;-69
2021/12/23 10:00:39;;;;;;;28.10;17.70;;;;;;;-0.46;100.00;100990.47;10168557;28;20057;-69
2021/12/23 10:05:36;;;;;;;32.85;15.75;;;;;;;-0.45;100.00;100975.94;10165564;28;20714;-69
2021/12/23 10:10:43;;;;;;;32.25;16.08;;;;;;;-0.43;100.00;100944.28;10162273;28;20137;-69
2021/12/23 10:31:43;;;;;;;31.13;16.25;;;;;;;-0.36;100.00;100869.75;10177199;28;20575;-69
2021/12/23 10:42:18;;;;;;;30.25;15.82;;;;;;;-0.29;100.00;100832.78;10176099;28;20057;-69
2021/12/23 10:47:35;;;;;;;27.63;15.75;;;;;;;-0.31;100.00;100867.13;10177999;28;20562;-69
2021/12/23 10:52:32;;;;;;;32.45;18.23;;;;;;;-0.36;100.00;100842.88;10168616;28;20081;-69
2021/12/23 11:03:25;;;;;;;32.35;16.67;;;;;;;-0.32;100.00;100816.34;10179081;28;20061;-69
2021/12/23 11:30:00;;;;;;;32.58;16.42;;;;;;;-0.11;100.00;100809.44;10171031;28;20061;-68
2021/12/23 11:44:42;;;;;;;28.85;16.02;;;;;;;-0.02;100.00;100778.41;10186214;28;20080;-68
2021/12/23 11:49:42;;;;;;;27.33;15.43;;;;;;;0.08;100.00;100761.59;10182280;28;20088;-68
2021/12/23 11:54:42;;;;;;;28.75;16.25;;;;;;;0.11;100.00;100761.91;10177124;28;20411;-68
2021/12/23 11:59:40;;;;;;;29.65;15.73;;;;;;;0.24;100.00;100743.81;10184991;28;20073;-68
2021/12/23 12:04:37;;;;;;;27.55;16.70;;;;;;;0.23;100.00;100736.78;10181720;28;20068;-67
2021/12/23 12:09:34;;;;;;;31.63;17.05;;;;;;;0.23;100.00;100726.03;10165473;28;20069;-67
2021/12/23 12:14:40;;;;;;;29.35;16.25;;;;;;;0.28;100.00;100708.13;10183352;28;20091;-67
2021/12/23 12:19:58;;;;;;;29.85;17.05;;;;;;;0.29;100.00;100698.16;10175871;28;20069;-67
2021/12/23 12:24:55;;;;;;;29.92;17.17;;;;;;;0.27;100.00;100689.53;10164826;28;20045;-67
2021/12/23 12:30:10;;;;;;;31.17;15.90;;;;;;;0.38;100.00;100664.38;10173410;28;20045;-67
2021/12/23 12:35:13;;;;;;;28.88;17.02;;;;;;;0.28;100.00;100659.69;10179249;28;20049;-68
2021/12/23 12:40:10;;;;;;;26.50;17.15;;;;;;;0.33;100.00;100656.25;10172054;28;20051;-67
2021/12/23 12:45:14;;;;;;;26.63;16.67;;;;;;;0.34;100.00;100647.13;10177491;28;20097;-67
2021/12/23 12:50:17;;;;;;;33.08;18.27;;;;;;;0.31;100.00;100648.44;10171517;28;20046;-67
2021/12/23 12:55:26;;;;;;;30.13;17.17;;;;;;;0.38;100.00;100648.25;10165508;28;20085;-68
2021/12/23 13:00:31;;;;;;;27.40;15.82;;;;;;;0.48;100.00;100659.09;10035535;28;20058;-68
2021/12/23 13:05:40;;;;;;;30.65;16.70;;;;;;;0.44;100.00;100647.22;10177243;28;20038;-67
2021/12/23 13:10:36;;;;;;;27.40;17.15;;;;;;;0.33;100.00;100629.38;10173643;28;20050;-67
2021/12/23 13:15:39;;;;;;;28.33;16.80;;;;;;;0.43;100.00;100621.41;10167739;28;20092;-68
2021/12/23 13:20:41;;;;;;;29.33;17.80;;;;;;;0.32;100.00;100608.91;10162151;28;20148;-68
2021/12/23 13:26:06;;;;;;;31.87;18.53;;;;;;;0.25;100.00;100600.22;10177077;28;20093;-68
2021/12/23 13:31:05;;;;;;;34.13;19.67;;;;;;;0.24;100.00;100609.34;10174317;28;20140;-68
2021/12/23 13:36:02;;;;;;;34.25;19.75;;;;;;;0.22;100.00;100606.91;10184677;28;20472;-68
2021/12/23 13:41:44;;;;;;;36.97;21.00;;;;;;;0.10;100.00;100604.34;10186264;28;20041;-68
2021/12/23 13:46:53;;;;;;;40.90;21.17;;;;;;;0.13;100.00;100593.09;10212339;28;20046;-68
2021/12/23 13:51:51;;;;;;;44.33;23.27;;;;;;;0.10;100.00;100569.41;10170414;28;20050;-68
2021/12/23 13:56:50;;;;;;;42.67;22.55;;;;;;;0.04;100.00;100562.34;10185867;28;20096;-68
2021/12/23 14:02:09;;;;;;;39.28;22.45;;;;;;;0.15;100.00;100547.94;10174477;28;20624;-68
2021/12/23 14:07:09;;;;;;;40.22;22.83;;;;;;;-0.14;100.00;100543.84;10172154;28;20671;-68
2021/12/23 14:12:06;;;;;;;38.22;22.52;;;;;;;-0.05;100.00;100526.22;10181192;28;20080;-68
2021/12/23 14:17:03;;;;;;;40.40;23.95;;;;;;;-0.01;100.00;100527.34;10177863;28;20053;-68
2021/12/23 14:27:15;;;;;;;43.92;25.23;;;;;;;-0.02;100.00;100493.47;10183931;28;20101;-68
2021/12/23 14:32:13;;;;;;;46.83;24.42;;;;;;;-0.11;100.00;100489.59;10174043;28;20492;-68
2021/12/23 14:37:10;;;;;;;45.42;24.92;;;;;;;-0.19;100.00;100482.78;10180976;28;20066;-68
2021/12/23 14:42:13;;;;;;;47.05;26.77;;;;;;;-0.18;100.00;100478.25;10184385;28;20572;-68
2021/12/23 14:47:15;;;;;;;44.88;26.38;;;;;;;-0.06;100.00;100462.78;10175089;28;20121;-68
2021/12/23 14:52:30;;;;;;;44.58;24.63;;;;;;;0.06;100.00;100451.88;10070692;28;20045;-68
2021/12/23 14:57:31;;;;;;;45.85;25.27;;;;;;;-0.01;100.00;100435.94;10057899;28;20104;-68
2021/12/23 15:02:29;;;;;;;46.20;26.23;;;;;;;-0.05;100.00;100424.06;10182598;28;20077;-68
2021/12/23 15:07:26;;;;;;;48.13;25.40;;;;;;;-0.10;100.00;100399.84;10176099;28;20678;-68
2021/12/23 15:12:25;;;;;;;45.78;26.67;;;;;;;-0.01;100.00;100388.38;10174839;28;20523;-69
2021/12/23 15:17:31;;;;;;;44.40;24.08;;;;;;;0.04;100.00;100395.66;10186180;28;20049;-68
2021/12/23 15:22:34;;;;;;;47.15;26.35;;;;;;;-0.01;100.00;100392.94;10178863;28;20504;-69
2021/12/23 15:27:31;;;;;;;42.50;25.08;;;;;;;-0.03;100.00;100369.00;10177735;28;20594;-68
2021/12/23 15:32:36;;;;;;;48.00;28.17;;;;;;;0.00;100.00;100362.31;10057032;28;20071;-68
2021/12/23 15:37:38;;;;;;;44.28;27.00;;;;;;;0.00;100.00;100348.88;10055905;28;20463;-68
2021/12/23 15:42:35;;;;;;;46.33;26.05;;;;;;;0.00;100.00;100340.81;10185017;28;20046;-68
2021/12/23 15:47:31;;;;;;;48.92;26.23;;;;;;;0.06;100.00;100326.34;10175397;28;20132;-68
2021/12/23 15:52:28;;;;;;;48.35;27.50;;;;;;;0.14;100.00;100331.25;10175172;28;20114;-68
2021/12/23 15:57:25;;;;;;;44.05;25.95;;;;;;;0.12;100.00;100314.56;10184321;28;20084;-68
2021/12/23 16:02:26;;;;;;;39.72;22.85;;;;;;;0.17;100.00;100309.22;10061221;28;20076;-68
2021/12/23 16:07:26;;;;;;;43.65;24.90;;;;;;;0.25;100.00;100305.22;10057424;28;20054;-68
2021/12/23 16:12:28;;;;;;;43.58;24.23;;;;;;;0.26;100.00;100306.06;10182940;28;20541;-68
2021/12/23 16:17:27;;;;;;;39.35;23.73;;;;;;;0.26;100.00;100300.69;10179638;28;20137;-68
2021/12/23 16:22:26;;;;;;;42.47;26.60;;;;;;;0.28;100.00;100293.13;10170712;28;20038;-68
2021/12/23 16:27:23;;;;;;;45.50;24.63;;;;;;;0.30;100.00;100285.63;10174144;28;20137;-68
2021/12/23 16:32:19;;;;;;;45.60;28.40;;;;;;;0.32;100.00;100267.34;10178234;28;20077;-68
2021/12/23 16:37:16;;;;;;;41.83;25.40;;;;;;;0.32;100.00;100278.91;10178979;28;20069;-68
2021/12/23 16:42:12;;;;;;;46.15;27.70;;;;;;;0.39;100.00;100263.34;10177650;28;20558;-68
2021/12/23 16:47:09;;;;;;;44.28;25.33;;;;;;;0.41;100.00;100249.66;10174152;28;20500;-68
2021/12/23 16:52:08;;;;;;;50.53;27.42;;;;;;;0.38;100.00;100247.50;10182969;28;20045;-68
2021/12/23 17:02:01;;;;;;;45.75;26.73;;;;;;;0.30;100.00;100232.66;10179795;28;20121;-67
2021/12/23 17:06:57;;;;;;;43.58;25.42;;;;;;;0.32;100.00;100241.25;10177820;28;20073;-68
2021/12/23 17:11:56;;;;;;;47.38;26.65;;;;;;;0.27;100.00;100227.00;10185395;28;20132;-68
2021/12/23 17:16:57;;;;;;;53.53;28.65;;;;;;;0.35;100.00;100207.69;10181885;28;20050;-68
2021/12/23 17:21:56;;;;;;;50.88;28.98;;;;;;;0.37;100.00;100216.28;10183440;28;20050;-68
2021/12/23 17:26:54;;;;;;;50.72;27.95;;;;;;;0.44;100.00;100195.31;10189580;28;20140;-68
2021/12/23 17:31:50;;;;;;;54.80;28.85;;;;;;;0.42;100.00;100194.81;10186129;28;20085;-68
2021/12/23 17:36:47;;;;;;;56.45;29.25;;;;;;;0.40;100.00;100188.88;10189346;28;20088;-68
2021/12/23 17:41:44;;;;;;;53.45;30.92;;;;;;;0.46;100.00;100185.09;10180737;28;20042;-68
2021/12/23 17:46:40;;;;;;;50.25;30.52;;;;;;;0.41;100.00;100185.09;10193588;28;20077;-68
2021/12/23 17:51:37;;;;;;;51.30;28.98;;;;;;;0.37;100.00;100195.59;10182050;28;20041;-68
2021/12/23 17:56:36;;;;;;;41.60;19.17;;;;;;;0.20;100.00;100198.44;10184527;28;20097;-68
2021/12/23 18:01:34;;;;;;;50.70;28.48;;;;;;;0.18;100.00;100176.38;10184038;28;20046;-68
2021/12/23 18:06:37;;;;;;;63.35;34.05;;;;;;;0.19;100.00;100159.19;10179662;28;20415;-68
2021/12/23 18:11:36;;;;;;;59.72;29.98;;;;;;;0.23;100.00;100147.91;10182664;28;20625;-68
2021/12/23 18:16:32;;;;;;;53.63;28.80;;;;;;;0.26;100.00;100145.53;10170173;28;20124;-68
2021/12/23 18:21:29;;;;;;;61.33;31.20;;;;;;;0.22;100.00;100135.56;10187945;28;20049;-68
2021/12/23 18:26:25;;;;;;;63.72;33.72;;;;;;;0.28;100.00;100134.47;10178852;28;20046;-68
2021/12/23 18:31:24;;;;;;;48.50;24.92;;;;;;;0.20;100.00;100150.06;10187838;28;20519;-67
2021/12/23 18:36:27;;;;;;;63.88;33.17;;;;;;;0.28;100.00;100142.53;10185678;28;20504;-68
2021/12/23 18:41:30;;;;;;;64.80;32.77;;;;;;;0.35;100.00;100137.75;10185770;28;20500;-68
2021/12/23 18:46:28;;;;;;;58.70;29.88;;;;;;;0.35;100.00;100118.94;10180794;28;20461;-68
2021/12/23 18:51:26;;;;;;;61.53;31.77;;;;;;;0.38;100.00;100115.72;10187388;28;20046;-68
2021/12/23 18:56:30;;;;;;;69.30;35.65;;;;;;;0.42;100.00;100116.81;10183504;28;20042;-68
2021/12/23 19:01:29;;;;;;;69.20;35.08;;;;;;;0.42;100.00;100108.72;10184022;28;20105;-68
2021/12/23 19:06:28;;;;;;;69.90;37.75;;;;;;;0.47;100.00;100097.97;10189136;28;20511;-68
2021/12/23 19:11:30;;;;;;;68.65;36.55;;;;;;;0.45;100.00;100093.94;10172415;28;20041;-68
2021/12/23 19:16:29;;;;;;;68.13;35.50;;;;;;;0.53;100.00;100082.66;10186174;28;20045;-68
2021/12/23 19:21:27;;;;;;;68.22;36.75;;;;;;;0.55;100.00;100089.38;10175228;28;20503;-68
2021/12/23 19:26:23;;;;;;;70.82;37.05;;;;;;;0.53;100.00;100079.97;10181500;28;20066;-68
2021/12/23 19:31:23;;;;;;;62.50;33.30;;;;;;;0.60;100.00;100073.25;10170402;28;20092;-68
2021/12/23 19:36:20;;;;;;;61.55;32.92;;;;;;;0.48;100.00;100061.13;10181994;28;20048;-68
2021/12/23 19:41:16;;;;;;;55.65;32.58;;;;;;;0.53;100.00;100053.84;10175579;28;20104;-68
2021/12/23 19:46:13;;;;;;;53.33;30.23;;;;;;;0.62;100.00;100041.50;10171507;28;20062;-68
2021/12/23 19:51:09;;;;;;;57.63;32.40;;;;;;;0.62;100.00;100036.09;10183025;28;20070;-68
2021/12/23 19:56:06;;;;;;;53.33;30.92;;;;;;;0.66;100.00;100019.44;10175797;28;20096;-69
2021/12/23 20:01:03;;;;;;;58.38;32.28;;;;;;;0.68;100.00;100011.91;10179550;28;20134;-68
2021/12/23 20:05:59;;;;;;;55.05;31.27;;;;;;;0.62;100.00;99998.44;10183563;28;20049;-68
2021/12/23 20:10:56;;;;;;;55.40;31.77;;;;;;;0.69;100.00;100002.75;10180243;28;20038;-68
2021/12/23 20:15:52;;;;;;;52.78;27.70;;;;;;;0.69;100.00;99994.69;10187880;28;20516;-68
2021/12/23 20:20:49;;;;;;;48.55;27.52;;;;;;;0.67;100.00;99984.19;10177448;28;20125;-68
2021/12/23 20:25:45;;;;;;;54.65;29.42;;;;;;;0.66;100.00;99981.78;10168219;28;20074;-68
2021/12/23 20:30:42;;;;;;;49.63;26.38;;;;;;;0.76;100.00;99989.84;10167566;28;20066;-68
2021/12/23 20:35:40;;;;;;;45.40;26.20;;;;;;;0.77;100.00;99978.00;10190083;28;20605;-68
2021/12/23 20:40:38;;;;;;;47.13;27.20;;;;;;;0.78;100.00;99974.22;10186158;28;20112;-68
2021/12/23 20:45:35;;;;;;;44.30;25.15;;;;;;;0.83;100.00;99971.53;10180761;28;20563;-68
2021/12/23 20:50:36;;;;;;;40.92;24.15;;;;;;;0.82;100.00;99976.13;10193674;28;20038;-68
2021/12/23 20:55:38;;;;;;;38.90;23.92;;;;;;;0.88;100.00;99960.75;10186168;28;20145;-68
2021/12/23 21:00:35;;;;;;;39.17;21.88;;;;;;;0.93;100.00;99955.38;10190898;28;20120;-68
2021/12/23 21:05:32;;;;;;;35.75;21.20;;;;;;;0.94;100.00;99946.22;10188045;28;20129;-68
2021/12/23 21:10:29;;;;;;;33.47;19.83;;;;;;;0.95;100.00;99934.38;10192430;28;20104;-68
2021/12/23 21:15:32;;;;;;;33.72;18.73;;;;;;;1.07;100.00;99941.34;10185173;28;20141;-68
2021/12/23 21:20:28;;;;;;;33.45;19.48;;;;;;;1.12;100.00;99933.25;10189148;28;20116;-69
2021/12/23 21:25:25;;;;;;;36.53;21.33;;;;;;;1.12;100.00;99928.69;10181602;28;20078;-69
2021/12/23 21:30:22;;;;;;;33.20;20.05;;;;;;;1.14;100.00;99917.63;10181856;28;20565;-68
2021/12/23 21:35:19;;;;;;;30.83;16.55;;;;;;;1.16;100.00;99905.50;10187424;28;20077;-68
2021/12/23 21:40:15;;;;;;;38.22;19.77;;;;;;;1.23;100.00;99897.13;10194341;28;20054;-68
2021/12/23 21:45:12;;;;;;;32.88;18.83;;;;;;;1.21;100.00;99902.78;10189561;28;20100;-68
2021/12/23 21:50:10;;;;;;;35.75;21.80;;;;;;;1.29;100.00;99896.03;10192373;28;20084;-68
2021/12/23 21:55:43;;;;;;;33.50;20.67;;;;;;;1.32;100.00;99887.38;10195045;28;20077;-69
2021/12/23 22:00:35;;;;;;;32.35;18.65;;;;;;;1.40;100.00;99873.34;10175267;28;20111;-68
2021/12/23 22:05:32;;;;;;;33.47;17.98;;;;;;;1.45;100.00;99854.47;10167806;28;20150;-68
2021/12/23 22:10:28;;;;;;;34.72;19.33;;;;;;;1.53;100.00;99860.34;10180847;28;20120;-68
2021/12/23 22:15:28;;;;;;;36.03;19.65;;;;;;;1.61;100.00;99862.47;10177820;28;20201;-68
2021/12/23 22:20:25;;;;;;;27.70;17.10;;;;;;;1.65;100.00;99841.97;10171843;28;20155;-68
2021/12/23 22:25:22;;;;;;;31.02;16.73;;;;;;;1.75;100.00;99841.88;10177753;28;20096;-68
2021/12/23 22:30:18;;;;;;;25.20;14.82;;;;;;;1.83;100.00;99833.22;10193053;28;20627;-68
2021/12/23 22:35:15;;;;;;;23.67;12.05;;;;;;;1.91;100.00;99822.91;10184572;28;20912;-68
2021/12/23 22:40:16;;;;;;;28.58;15.77;;;;;;;1.97;100.00;99827.94;10183755;28;20096;-68
2021/12/23 22:45:16;;;;;;;25.50;13.65;;;;;;;2.04;100.00;99822.25;10182057;28;20522;-68
2021/12/23 22:50:15;;;;;;;25.85;15.07;;;;;;;2.08;100.00;99831.38;10179835;28;20078;-68
2021/12/23 22:55:13;;;;;;;27.95;13.63;;;;;;;2.11;100.00;99828.09;10191314;28;20046;-69
2021/12/23 23:00:37;;;;;;;24.67;14.20;;;;;;;2.22;100.00;99823.44;10182535;28;20049;-68
2021/12/23 23:05:35;;;;;;;32.03;15.65;;;;;;;2.22;100.00;99818.03;9964491;28;20046;-68
2021/12/23 23:10:41;;;;;;;28.48;15.13;;;;;;;2.22;100.00;99813.44;10178267;28;20053;-68
2021/12/23 23:20:53;;;;;;;27.58;15.75;;;;;;;2.33;100.00;99802.56;10177481;28;20046;-68
2021/12/23 23:25:52;;;;;;;25.50;13.75;;;;;;;2.30;100.00;99806.66;10175415;28;20108;-68
2021/12/23 23:36:10;;;;;;;29.80;16.65;;;;;;;2.30;100.00;99812.84;10178126;28;20050;-68
2021/12/23 23:41:06;;;;;;;;;;;;;;;2.33;100.00;99802.56;10183589;28;20053;-68
2021/12/23 23:46:11;;;;;;;34.30;18.08;;;;;;;2.31;100.00;99811.75;10185909;28;20008;-68